Moses Lake, WA

1:41 PM PST on February 01, 2015 (GMT -0800)
Civic Center | Change Station
CLOSE
Current Station
Personal Weather Station
Location: Moses Lake, WA
Elevation: 1050 ft
Nearby Weather Stations

Elev 1050 ft 47.13 °N, 119.27 °W | Updated 8 seconds ago

Rain
Rain
34.0 °F
Feels Like 30 °F
N
4.0
Wind Variable Wind from SW
Gusts 13.0 mph

Today
High -- | Low -- °F
--% Chance of Precip.
Yesterday
High -- | Low -- °F
Precip. -- in
7:22 AM 4:59 PM
Waxing Gibbous, 96% visible
Pressure 30.09 in
Visibility 3.0 miles
Clouds Few 700 ft
Mostly Cloudy 3300 ft
Overcast 5500 ft
Windchill 30 °F
Dew Point 33 °F
Humidity 95%
Rainfall 0.02 in
Snow Depth Not available.
UV 1 out of 12
Pollen 3.60 out of 12
Air Quality Not available.
Flu Activity Not available.
SPECI KMWH 012124Z 19005KT 3SM UP BR FEW007 BKN033 OVC055 02/01 A3009 RMK AO2 UPB23SNB01E23 P0001 T00170006

More Conditions Fewer Conditions

Pressure 30.09 in
Visibility 3.0 miles
Clouds Few 700 ft
Mostly Cloudy 3300 ft
Overcast 5500 ft
Windchill 30 °F
Dew Point 33 °F
Humidity 95%
Rainfall 0.02 in
Snow Depth Not available.
UV 1 out of 12
Pollen 3.60 out of 12
Air Quality Not available.
Flu Activity Not available.
SPECI KMWH 012124Z 19005KT 3SM UP BR FEW007 BKN033 OVC055 02/01 A3009 RMK AO2 UPB23SNB01E23 P0001 T00170006

More Conditions Fewer Conditions

10-Day Weather Forecast

Almanac

Astronomy

Feb. 01, 2015 Rise Set
Actual Time
Civil Twilight
Nautical Twilight
Astronomical Twilight
Moon
Length of Visible Light
Length of Day
Tomorrow will be .
, % of the Moon is Illuminated

Today's Extremes

State Highs State Lows

Community

WunderPhotos

Upload Photos

1,792,555 photos uploaded!

WunderBlogs® & News

Nearby

Air Quality

  Air Quality AQ Index Pollutant
Not available.

Snow Depth

Station Depth Elevation

Earthquake Activity

City Distance Mag. Time & Date
Minimum magnitude displayed is 2.5.

Coastal Water Temperatures

Place Temperature

Nearby Weather Stations